createdAt,value
2018-11-06T00:00:15.223Z,10.20
2018-11-06T00:02:44.579Z,10.20
2018-11-06T00:05:14.864Z,10.20
2018-11-06T00:07:44.650Z,10.20
2018-11-06T00:10:13.599Z,10.20
2018-11-06T00:12:42.616Z,10.20
2018-11-06T00:15:11.760Z,10.10
2018-11-06T00:17:40.792Z,10.10
2018-11-06T00:20:11.921Z,10.00
2018-11-06T00:22:40.856Z,9.90
2018-11-06T00:25:11.062Z,9.90
2018-11-06T00:27:40.423Z,9.90
2018-11-06T00:30:11.149Z,9.90
2018-11-06T00:32:40.760Z,9.90
2018-11-06T00:35:11.305Z,9.90
2018-11-06T00:37:41.169Z,9.90
2018-11-06T00:40:10.217Z,9.90
2018-11-06T00:42:39.362Z,9.80
2018-11-06T00:45:11.734Z,9.80
2018-11-06T00:47:41.138Z,9.80
2018-11-06T00:50:11.210Z,9.80
2018-11-06T00:52:41.212Z,9.80
2018-11-06T00:55:10.648Z,9.80
2018-11-06T00:57:41.503Z,9.70
2018-11-06T01:00:13.960Z,9.70
2018-11-06T01:02:42.946Z,9.70
2018-11-06T01:05:12.684Z,9.70
2018-11-06T01:07:42.651Z,9.70
2018-11-06T01:10:11.971Z,9.60
2018-11-06T01:12:41.194Z,9.60
2018-11-06T01:15:12.144Z,9.50
2018-11-06T01:17:41.638Z,9.50
2018-11-06T01:20:12.838Z,9.40
2018-11-06T01:22:41.847Z,9.40
2018-11-06T01:25:11.446Z,9.40
2018-11-06T01:27:40.694Z,9.30
2018-11-06T01:30:14.820Z,9.30
2018-11-06T01:32:44.510Z,9.30
2018-11-06T01:35:14.291Z,9.40
2018-11-06T01:37:44.050Z,9.40
2018-11-06T01:40:15.083Z,9.40
2018-11-06T01:42:44.847Z,9.50
2018-11-06T01:45:16.119Z,9.50
2018-11-06T01:47:45.128Z,9.60
2018-11-06T01:50:15.163Z,9.50
2018-11-06T01:52:45.242Z,9.40
2018-11-06T01:55:14.177Z,9.40
2018-11-06T01:57:43.364Z,9.40
2018-11-06T02:00:18.435Z,9.40
2018-11-06T02:02:47.626Z,9.40
2018-11-06T02:05:17.648Z,9.40
2018-11-06T02:07:47.830Z,9.50
2018-11-06T02:10:17.177Z,9.60
2018-11-06T02:12:46.778Z,9.60
2018-11-06T02:15:15.767Z,9.60
2018-11-06T02:17:45.378Z,9.60
2018-11-06T02:20:15.102Z,9.50
2018-11-06T02:22:44.713Z,9.60
2018-11-06T02:25:14.031Z,9.60
2018-11-06T02:27:43.130Z,9.60
2018-11-06T02:30:13.902Z,9.60
2018-11-06T02:32:43.999Z,9.60
2018-11-06T02:35:13.012Z,9.60
2018-11-06T02:37:41.970Z,9.60
2018-11-06T02:40:13.233Z,9.60
2018-11-06T02:42:42.517Z,9.60
2018-11-06T02:45:12.252Z,9.50
2018-11-06T02:47:41.867Z,9.50
2018-11-06T02:50:11.774Z,9.60
2018-11-06T02:52:41.198Z,9.60
2018-11-06T02:55:10.675Z,9.70
2018-11-06T02:57:39.843Z,9.60
2018-11-06T03:00:11.144Z,9.60
2018-11-06T03:02:40.081Z,9.60
2018-11-06T03:05:09.848Z,9.60
2018-11-06T03:07:38.850Z,9.60
2018-11-06T03:10:09.271Z,9.60
2018-11-06T03:12:38.528Z,9.60
2018-11-06T03:15:08.364Z,9.60
2018-11-06T03:17:37.300Z,9.50
2018-11-06T03:20:06.667Z,9.50
2018-11-06T03:22:35.696Z,9.60
2018-11-06T03:25:04.885Z,9.50
2018-11-06T03:27:33.824Z,9.40
2018-11-06T03:30:03.479Z,9.40
2018-11-06T03:32:32.415Z,9.50
2018-11-06T03:35:01.311Z,9.50
2018-11-06T03:37:30.285Z,9.50
2018-11-06T03:39:59.190Z,9.50
2018-11-06T03:42:28.082Z,9.40
2018-11-06T03:44:57.133Z,9.40
2018-11-06T03:47:26.079Z,9.50
2018-11-06T03:49:55.030Z,9.50
2018-11-06T03:52:24.021Z,9.50
2018-11-06T03:54:52.999Z,9.60
2018-11-06T03:57:21.926Z,9.60
2018-11-06T03:59:50.916Z,9.70
2018-11-06T04:02:19.810Z,9.60
2018-11-06T04:04:49.430Z,9.70
2018-11-06T04:07:18.366Z,9.70
2018-11-06T04:09:47.274Z,9.70
2018-11-06T04:12:16.284Z,9.70
2018-11-06T04:14:45.254Z,9.60
2018-11-06T04:17:14.184Z,9.70
2018-11-06T04:19:43.101Z,9.60
2018-11-06T04:22:12.115Z,9.60
2018-11-06T04:24:41.023Z,9.60
2018-11-06T04:27:09.930Z,9.50
2018-11-06T04:29:38.911Z,9.60
2018-11-06T04:32:07.962Z,9.60
2018-11-06T04:34:36.877Z,9.70
2018-11-06T04:37:05.957Z,9.80
2018-11-06T04:39:34.899Z,9.90
2018-11-06T04:42:03.925Z,9.90
2018-11-06T04:44:32.944Z,9.90
2018-11-06T04:47:01.879Z,9.90
2018-11-06T04:49:30.788Z,9.80
2018-11-06T04:51:59.765Z,9.80
2018-11-06T04:54:28.754Z,9.70
2018-11-06T04:56:57.673Z,9.60
2018-11-06T04:59:26.621Z,9.50
2018-11-06T05:01:55.572Z,9.40
2018-11-06T05:04:24.473Z,9.40
2018-11-06T05:06:53.554Z,9.30
2018-11-06T05:09:22.460Z,9.30
2018-11-06T05:11:51.459Z,9.20
2018-11-06T05:14:20.506Z,9.10
2018-11-06T05:16:49.478Z,9.10
2018-11-06T05:19:18.428Z,9.10
2018-11-06T05:21:47.405Z,9.10
2018-11-06T05:24:16.358Z,9.10
2018-11-06T05:26:45.259Z,9.10
2018-11-06T05:29:14.255Z,9.10
2018-11-06T05:31:43.173Z,9.10
2018-11-06T05:34:12.090Z,9.10
2018-11-06T05:36:41.057Z,9.00
2018-11-06T05:39:11.371Z,9.10
2018-11-06T05:41:40.321Z,9.00
2018-11-06T05:44:09.405Z,9.00
2018-11-06T05:46:38.324Z,9.00
2018-11-06T05:49:07.315Z,9.10
2018-11-06T05:51:36.210Z,9.10
2018-11-06T05:54:05.205Z,9.10
2018-11-06T05:56:34.270Z,9.20
2018-11-06T05:59:03.181Z,9.20
2018-11-06T06:01:32.162Z,9.20
2018-11-06T06:04:01.089Z,9.30
2018-11-06T06:06:30.000Z,9.30
2018-11-06T06:08:58.930Z,9.30
2018-11-06T06:11:28.056Z,9.30
2018-11-06T06:13:56.957Z,9.30
2018-11-06T06:16:25.855Z,9.30
2018-11-06T06:18:54.863Z,9.30
2018-11-06T06:21:23.764Z,9.40
2018-11-06T06:23:52.691Z,9.50
2018-11-06T06:26:21.750Z,9.40
2018-11-06T06:28:50.719Z,9.40
2018-11-06T06:31:19.654Z,9.40
2018-11-06T06:33:48.591Z,9.50
2018-11-06T06:36:18.168Z,9.50
2018-11-06T06:38:47.115Z,9.60
2018-11-06T06:41:16.097Z,9.70
2018-11-06T06:43:44.979Z,9.70
2018-11-06T06:46:13.965Z,9.70
2018-11-06T06:48:42.930Z,9.80
2018-11-06T06:51:11.846Z,9.80
2018-11-06T06:53:40.747Z,9.90
2018-11-06T06:56:09.847Z,9.90
2018-11-06T06:58:38.801Z,10.00
2018-11-06T07:01:07.827Z,10.10
2018-11-06T07:03:36.813Z,10.30
2018-11-06T07:06:05.904Z,11.10
2018-11-06T07:08:34.843Z,12.60
2018-11-06T07:11:03.866Z,14.60
2018-11-06T07:13:32.785Z,16.20
2018-11-06T07:16:01.726Z,17.50
2018-11-06T07:18:30.699Z,18.60
2018-11-06T07:20:59.635Z,19.40
2018-11-06T07:23:28.891Z,19.70
2018-11-06T07:25:58.220Z,20.40
2018-11-06T07:28:27.150Z,21.10
2018-11-06T07:30:56.348Z,20.00
2018-11-06T07:33:25.340Z,20.20
2018-11-06T07:35:54.324Z,21.00
2018-11-06T07:38:23.283Z,21.20
2018-11-06T07:40:52.476Z,21.20
2018-11-06T07:43:21.417Z,21.20
2018-11-06T07:45:50.319Z,21.70
2018-11-06T07:48:19.271Z,22.20
2018-11-06T07:50:48.195Z,21.50
2018-11-06T07:53:17.143Z,18.90
2018-11-06T07:55:46.170Z,16.50
2018-11-06T07:58:15.079Z,15.10
2018-11-06T08:00:43.982Z,14.30
2018-11-06T08:03:12.992Z,13.70
2018-11-06T08:05:41.903Z,13.60
2018-11-06T08:08:10.854Z,13.40
2018-11-06T08:10:39.847Z,13.40
2018-11-06T08:13:09.246Z,13.40
2018-11-06T08:15:38.653Z,13.50
2018-11-06T08:18:08.085Z,15.00
2018-11-06T08:20:37.024Z,17.70
2018-11-06T08:23:06.093Z,20.40
2018-11-06T08:25:35.130Z,22.20
2018-11-06T08:28:04.072Z,23.00
2018-11-06T08:30:33.121Z,23.60
2018-11-06T08:33:02.299Z,23.50
2018-11-06T08:35:31.267Z,23.10
2018-11-06T08:38:00.187Z,22.60
2018-11-06T08:40:29.170Z,22.80
2018-11-06T08:42:58.103Z,22.40
2018-11-06T08:45:27.030Z,21.70
2018-11-06T08:47:56.112Z,21.20
2018-11-06T08:50:25.039Z,20.00
2018-11-06T08:52:53.973Z,19.00
2018-11-06T08:55:22.953Z,17.90
2018-11-06T08:57:51.847Z,16.90
2018-11-06T09:00:20.742Z,16.40
2018-11-06T09:02:50.125Z,16.20
2018-11-06T09:05:19.592Z,15.90
2018-11-06T09:07:48.521Z,15.70
2018-11-06T09:10:18.131Z,15.60
2018-11-06T09:12:47.107Z,15.40
2018-11-06T09:15:17.434Z,15.40
2018-11-06T09:17:46.444Z,15.50
2018-11-06T09:20:16.391Z,15.60
2018-11-06T09:22:45.428Z,15.70
2018-11-06T09:25:15.625Z,15.90
2018-11-06T09:27:44.812Z,15.80
2018-11-06T09:30:15.000Z,15.90
2018-11-06T09:32:43.927Z,15.90
2018-11-06T09:35:13.415Z,16.00
2018-11-06T09:37:42.964Z,16.10
2018-11-06T09:40:14.975Z,16.20
2018-11-06T09:42:44.384Z,16.30
2018-11-06T09:45:13.781Z,16.40
2018-11-06T09:47:44.071Z,16.20
2018-11-06T09:50:15.617Z,16.20
2018-11-06T09:52:45.201Z,16.30
2018-11-06T09:55:14.860Z,16.30
2018-11-06T09:57:43.930Z,16.40
2018-11-06T10:00:15.355Z,16.60
2018-11-06T10:02:44.335Z,16.60
2018-11-06T10:05:13.835Z,16.60
2018-11-06T10:07:42.884Z,16.60
2018-11-06T10:10:14.380Z,16.70
2018-11-06T10:12:43.618Z,16.80
2018-11-06T10:15:14.419Z,16.90
2018-11-06T10:17:44.505Z,16.80
2018-11-06T10:20:14.325Z,16.90
2018-11-06T10:22:43.342Z,16.90
2018-11-06T10:25:12.255Z,16.90
2018-11-06T10:27:41.620Z,17.00
2018-11-06T10:30:13.744Z,17.10
2018-11-06T10:32:42.900Z,17.20
2018-11-06T10:35:12.081Z,17.20
2018-11-06T10:37:41.014Z,17.20
2018-11-06T10:40:12.701Z,17.30
2018-11-06T10:42:41.718Z,17.30
2018-11-06T10:45:10.769Z,17.50
2018-11-06T10:47:40.121Z,17.50
2018-11-06T10:50:10.499Z,17.50
2018-11-06T10:52:39.439Z,17.60
2018-11-06T10:55:08.827Z,17.60
2018-11-06T10:57:39.288Z,17.60
2018-11-06T11:00:16.092Z,17.60
2018-11-06T11:02:50.270Z,17.70
2018-11-06T11:05:19.725Z,17.60
2018-11-06T11:07:48.781Z,17.60
2018-11-06T11:10:17.712Z,17.60
2018-11-06T11:15:39.558Z,17.70
2018-11-06T11:18:08.631Z,17.80
2018-11-06T11:20:37.547Z,17.80
2018-11-06T11:23:07.011Z,17.80
2018-11-06T11:25:36.033Z,17.80
2018-11-06T11:28:05.071Z,17.80
2018-11-06T11:30:33.976Z,17.90
2018-11-06T11:33:02.942Z,17.90
2018-11-06T11:35:31.884Z,17.90
2018-11-06T11:38:00.810Z,18.00
2018-11-06T11:40:29.745Z,18.00
2018-11-06T11:42:58.694Z,18.10
2018-11-06T11:45:27.598Z,18.10
2018-11-06T11:47:56.508Z,18.20
2018-11-06T11:50:25.420Z,18.30
2018-11-06T11:52:55.220Z,18.30
2018-11-06T11:55:24.201Z,18.30
2018-11-06T11:57:53.105Z,18.40
2018-11-06T12:00:22.335Z,18.40
2018-11-06T12:02:51.278Z,18.40
2018-11-06T12:05:20.175Z,18.40
2018-11-06T12:07:49.075Z,18.50
2018-11-06T12:10:18.038Z,18.50
2018-11-06T12:12:46.939Z,18.60
2018-11-06T12:15:17.019Z,18.70
2018-11-06T12:17:46.764Z,18.70
2018-11-06T12:20:16.116Z,18.80
2018-11-06T12:22:45.058Z,18.80
2018-11-06T12:25:14.531Z,18.90
2018-11-06T12:27:43.560Z,18.80
2018-11-06T12:30:14.291Z,18.80
2018-11-06T12:32:43.366Z,18.90
2018-11-06T12:35:13.033Z,18.90
2018-11-06T12:37:42.048Z,18.80
2018-11-06T12:40:12.043Z,18.80
2018-11-06T12:42:41.606Z,18.90
2018-11-06T12:45:12.211Z,18.90
2018-11-06T12:47:41.412Z,18.90
2018-11-06T12:50:10.617Z,18.90
2018-11-06T12:52:39.972Z,18.90
2018-11-06T12:55:10.333Z,18.90
2018-11-06T12:57:39.430Z,18.90
2018-11-06T13:00:12.500Z,18.90
2018-11-06T13:02:41.448Z,19.00
2018-11-06T13:05:11.581Z,19.00
2018-11-06T13:07:41.656Z,19.00
2018-11-06T13:10:11.297Z,19.00
2018-11-06T13:12:40.708Z,19.00
2018-11-06T13:15:09.696Z,19.10
2018-11-06T13:17:38.911Z,19.00
2018-11-06T13:20:11.295Z,18.90
2018-11-06T13:22:41.081Z,18.90
2018-11-06T13:25:09.979Z,18.90
2018-11-06T13:27:39.857Z,18.90
2018-11-06T13:30:13.169Z,18.90
2018-11-06T13:32:43.033Z,18.90
2018-11-06T13:35:12.094Z,18.90
2018-11-06T13:37:40.985Z,18.90
2018-11-06T13:40:11.718Z,18.90
2018-11-06T13:42:40.770Z,18.90
2018-11-06T13:45:14.526Z,18.90
2018-11-06T13:47:43.550Z,18.90
2018-11-06T13:50:12.456Z,18.90
2018-11-06T13:52:41.468Z,18.90
2018-11-06T13:55:11.860Z,18.90
2018-11-06T13:57:41.068Z,18.90
2018-11-06T14:00:15.953Z,18.90
2018-11-06T14:02:45.207Z,18.80
2018-11-06T14:05:14.490Z,18.80
2018-11-06T14:07:43.584Z,18.80
2018-11-06T14:10:12.527Z,18.70
2018-11-06T14:12:42.304Z,18.50
2018-11-06T14:15:11.291Z,18.50
2018-11-06T14:17:40.368Z,18.50
2018-11-06T14:20:11.594Z,18.40
2018-11-06T14:22:40.536Z,18.40
2018-11-06T14:25:09.515Z,18.30
2018-11-06T14:27:38.662Z,18.30
2018-11-06T14:30:12.799Z,18.30
2018-11-06T14:32:41.900Z,18.20
2018-11-06T14:35:12.100Z,18.10
2018-11-06T14:37:41.648Z,18.00
2018-11-06T14:40:11.655Z,18.00
2018-11-06T14:42:41.145Z,17.90
2018-11-06T14:45:11.614Z,17.80
2018-11-06T14:47:40.591Z,17.70
2018-11-06T14:50:10.144Z,17.60
2018-11-06T14:52:39.074Z,17.60
2018-11-06T14:55:09.664Z,17.50
2018-11-06T14:57:38.681Z,17.40
2018-11-06T15:00:13.444Z,17.30
2018-11-06T15:02:43.563Z,17.20
2018-11-06T15:05:12.517Z,17.10
2018-11-06T15:07:41.451Z,17.00
2018-11-06T15:10:11.068Z,16.90
2018-11-06T15:12:40.036Z,16.80
2018-11-06T15:15:10.480Z,16.60
2018-11-06T15:17:39.747Z,16.60
2018-11-06T15:20:11.136Z,16.50
2018-11-06T15:22:40.617Z,16.50
2018-11-06T15:25:10.833Z,16.40
2018-11-06T15:27:39.997Z,16.30
2018-11-06T15:30:10.884Z,16.20
2018-11-06T15:32:40.367Z,16.20
2018-11-06T15:35:10.859Z,16.20
2018-11-06T15:37:39.873Z,16.20
2018-11-06T15:40:12.922Z,16.20
2018-11-06T15:42:41.963Z,16.10
2018-11-06T15:45:12.618Z,16.00
2018-11-06T15:47:42.577Z,16.00
2018-11-06T15:50:13.253Z,16.00
2018-11-06T15:52:42.819Z,16.00
2018-11-06T15:55:11.764Z,16.00
2018-11-06T15:57:40.680Z,15.90
2018-11-06T16:00:12.261Z,15.90
2018-11-06T16:02:41.337Z,15.80
2018-11-06T16:05:10.361Z,15.80
2018-11-06T16:07:40.253Z,15.70
2018-11-06T16:10:12.715Z,15.60
2018-11-06T16:12:42.058Z,15.60
2018-11-06T16:15:11.080Z,15.50
2018-11-06T16:17:40.020Z,15.50
2018-11-06T16:20:11.212Z,15.40
2018-11-06T16:22:40.178Z,15.30
2018-11-06T16:25:11.477Z,15.20
2018-11-06T16:27:40.871Z,15.20
2018-11-06T16:30:11.920Z,15.20
2018-11-06T16:32:41.277Z,15.10
2018-11-06T16:35:12.373Z,15.00
2018-11-06T16:37:41.711Z,15.00
2018-11-06T16:40:11.424Z,15.10
2018-11-06T16:42:41.126Z,15.00
2018-11-06T16:45:13.013Z,15.00
2018-11-06T16:47:42.448Z,15.00
2018-11-06T16:50:12.688Z,14.90
2018-11-06T16:52:42.279Z,14.90
2018-11-06T16:55:11.859Z,14.90
2018-11-06T16:57:42.018Z,14.80
2018-11-06T17:00:13.431Z,14.90
2018-11-06T17:02:42.803Z,14.90
2018-11-06T17:05:12.899Z,14.90
2018-11-06T17:07:42.156Z,14.90
2018-11-06T17:10:12.371Z,14.90
2018-11-06T17:12:41.369Z,14.90
2018-11-06T17:15:13.522Z,14.80
2018-11-06T17:17:42.927Z,14.80
2018-11-06T17:20:12.654Z,14.80
2018-11-06T17:22:41.633Z,14.80
2018-11-06T17:25:12.468Z,14.70
2018-11-06T17:27:41.419Z,14.70
2018-11-06T17:30:12.162Z,14.70
2018-11-06T17:32:41.738Z,14.70
2018-11-06T17:35:12.451Z,14.70
2018-11-06T17:37:41.819Z,14.70
2018-11-06T17:40:12.949Z,14.60
2018-11-06T17:42:43.106Z,14.60
2018-11-06T17:45:14.195Z,14.60
2018-11-06T17:47:43.426Z,14.60
2018-11-06T17:50:14.585Z,14.50
2018-11-06T17:52:43.935Z,14.50
2018-11-06T17:55:14.656Z,14.50
2018-11-06T17:57:43.703Z,14.40
2018-11-06T18:00:16.367Z,14.40
2018-11-06T18:02:45.512Z,14.30
2018-11-06T18:05:15.397Z,14.40
2018-11-06T18:07:44.588Z,14.30
2018-11-06T18:10:15.891Z,14.30
2018-11-06T18:12:45.125Z,14.20
2018-11-06T18:15:14.134Z,14.20
2018-11-06T18:17:43.637Z,14.20
2018-11-06T18:20:13.660Z,14.20
2018-11-06T18:22:43.281Z,14.20
2018-11-06T18:25:13.117Z,14.10
2018-11-06T18:27:42.044Z,14.10
2018-11-06T18:30:14.079Z,14.10
2018-11-06T18:32:43.009Z,14.10
2018-11-06T18:35:12.990Z,14.10
2018-11-06T18:37:41.975Z,14.00
2018-11-06T18:40:13.778Z,14.00
2018-11-06T18:42:43.527Z,14.10
2018-11-06T18:45:12.811Z,14.10
2018-11-06T18:47:41.782Z,14.10
2018-11-06T18:50:12.737Z,14.00
2018-11-06T18:52:42.775Z,14.00
2018-11-06T18:55:11.760Z,13.90
2018-11-06T18:57:40.860Z,13.90
2018-11-06T19:00:13.676Z,13.80
2018-11-06T19:02:43.737Z,13.80
2018-11-06T19:05:12.704Z,13.70
2018-11-06T19:07:41.603Z,13.70
2018-11-06T19:10:12.140Z,13.70
2018-11-06T19:12:41.281Z,13.70
2018-11-06T19:15:12.950Z,13.70
2018-11-06T19:17:42.716Z,13.70
2018-11-06T19:20:12.392Z,13.60
2018-11-06T19:22:41.584Z,13.60
2018-11-06T19:25:11.571Z,13.60
2018-11-06T19:27:40.662Z,13.50
2018-11-06T19:30:14.219Z,13.50
2018-11-06T19:32:43.337Z,13.50
2018-11-06T19:35:12.308Z,13.50
2018-11-06T19:37:41.431Z,13.50
2018-11-06T19:40:12.271Z,13.50
2018-11-06T19:42:42.040Z,13.50
2018-11-06T19:45:11.736Z,13.50
2018-11-06T19:47:40.737Z,13.50
2018-11-06T19:50:11.468Z,13.50
2018-11-06T19:52:40.811Z,13.50
2018-11-06T19:55:11.263Z,13.50
2018-11-06T19:57:40.783Z,13.40
2018-11-06T20:00:15.274Z,13.40
2018-11-06T20:02:45.537Z,13.50
2018-11-06T20:05:14.528Z,13.50
2018-11-06T20:07:44.361Z,13.50
2018-11-06T20:10:14.747Z,13.50
2018-11-06T20:12:44.600Z,13.50
2018-11-06T20:15:14.448Z,13.50
2018-11-06T20:17:43.981Z,13.50
2018-11-06T20:20:15.788Z,13.50
2018-11-06T20:22:45.277Z,13.40
2018-11-06T20:25:14.330Z,13.40
2018-11-06T20:27:43.692Z,13.40
2018-11-06T20:30:15.739Z,13.30
2018-11-06T20:32:44.974Z,13.30
2018-11-06T20:35:14.459Z,13.30
2018-11-06T20:37:43.449Z,13.30
2018-11-06T20:40:14.455Z,13.30
2018-11-06T20:42:43.953Z,13.30
2018-11-06T20:45:14.199Z,13.20
2018-11-06T20:47:43.469Z,13.20
2018-11-06T20:50:14.243Z,13.10
2018-11-06T20:52:43.570Z,13.10
2018-11-06T20:55:13.690Z,13.00
2018-11-06T20:57:42.655Z,12.90
2018-11-06T21:00:18.164Z,12.90
2018-11-06T21:02:47.473Z,12.80
2018-11-06T21:05:16.779Z,12.80
2018-11-06T21:07:46.530Z,12.80
2018-11-06T21:10:16.335Z,12.80
2018-11-06T21:12:45.332Z,12.70
2018-11-06T21:15:14.330Z,12.70
2018-11-06T21:17:43.596Z,12.60
2018-11-06T21:20:13.496Z,12.70
2018-11-06T21:22:42.546Z,12.60
2018-11-06T21:25:11.821Z,12.50
2018-11-06T21:27:41.536Z,12.60
2018-11-06T21:30:13.081Z,12.60
2018-11-06T21:32:43.288Z,12.50
2018-11-06T21:35:13.042Z,12.50
2018-11-06T21:37:42.291Z,12.40
2018-11-06T21:40:13.853Z,12.30
2018-11-06T21:42:43.799Z,12.30
2018-11-06T21:45:14.018Z,12.30
2018-11-06T21:47:43.978Z,12.20
2018-11-06T21:50:14.797Z,12.10
2018-11-06T21:52:43.715Z,12.10
2018-11-06T21:55:13.763Z,12.10
2018-11-06T21:57:42.755Z,12.10
2018-11-06T22:00:13.923Z,12.10
2018-11-06T22:02:43.404Z,12.00
2018-11-06T22:05:13.507Z,12.00
2018-11-06T22:07:42.692Z,12.00
2018-11-06T22:10:13.093Z,12.00
2018-11-06T22:12:42.725Z,12.00
2018-11-06T22:15:12.704Z,12.00
2018-11-06T22:17:41.800Z,12.10
2018-11-06T22:20:12.619Z,12.00
2018-11-06T22:22:42.260Z,12.00
2018-11-06T22:25:11.152Z,11.90
2018-11-06T22:27:40.448Z,11.80
2018-11-06T22:30:13.368Z,11.80
2018-11-06T22:32:43.119Z,11.80
2018-11-06T22:35:13.231Z,11.70
2018-11-06T22:37:42.272Z,11.70
2018-11-06T22:40:12.739Z,11.70
2018-11-06T22:42:41.751Z,11.70
2018-11-06T22:45:12.672Z,11.70
2018-11-06T22:47:42.136Z,11.60
2018-11-06T22:50:14.136Z,11.50
2018-11-06T22:52:43.596Z,11.50
2018-11-06T22:55:12.507Z,11.50
2018-11-06T22:57:41.571Z,11.40
2018-11-06T23:00:18.041Z,11.40
2018-11-06T23:02:47.043Z,11.40
2018-11-06T23:05:15.978Z,11.40
2018-11-06T23:07:50.091Z,11.40
2018-11-06T23:10:19.038Z,11.40
2018-11-06T23:12:47.919Z,11.40
2018-11-06T23:15:16.892Z,11.30
2018-11-06T23:17:45.841Z,11.40
2018-11-06T23:20:14.815Z,11.40
2018-11-06T23:22:43.796Z,11.30
2018-11-06T23:25:13.057Z,11.30
2018-11-06T23:27:42.394Z,11.30
2018-11-06T23:30:13.372Z,11.20
2018-11-06T23:32:42.480Z,11.20
2018-11-06T23:35:11.382Z,11.20
2018-11-06T23:37:40.979Z,11.20
2018-11-06T23:40:10.519Z,11.20
2018-11-06T23:42:39.456Z,11.30
2018-11-06T23:45:08.943Z,11.20
2018-11-06T23:47:37.895Z,11.20
2018-11-06T23:50:07.911Z,11.20
2018-11-06T23:52:36.979Z,11.30
2018-11-06T23:55:06.213Z,11.20
2018-11-06T23:57:35.129Z,11.10
